Time;durP1;ratioP1;P1;durP2;ratioP2;P2;SDS_P1;SDS_P2;PMS_P1;PMS_P2;Temp;Humidity;BMP_temperature;BMP_pressure;BME280_temperature;BME280_humidity;BME280_pressure;Samples;Min_cycle;Max_cycle;Signal;HPM_P1;HPM_P2
2022/01/27 00:02:51;;;;;;;28.98;10.07;;;;;;;3.05;100.00;102115.72;6221530;28;20429;-77
2022/01/27 00:05:55;;;;;;;23.63;7.85;;;;;;;3.05;100.00;102111.38;6221788;28;20565;-76
2022/01/27 00:09:05;;;;;;;22.23;8.93;;;;;;;3.09;100.00;102113.94;6222791;28;20053;-76
2022/01/27 00:12:09;;;;;;;29.88;9.45;;;;;;;3.11;100.00;102110.50;6238649;28;20055;-76
2022/01/27 00:15:12;;;;;;;25.27;9.95;;;;;;;3.11;100.00;102109.63;6247098;28;20497;-76
2022/01/27 00:18:17;;;;;;;26.50;8.05;;;;;;;3.14;100.00;102091.47;6246713;28;20092;-77
2022/01/27 00:21:22;;;;;;;30.58;9.15;;;;;;;3.10;100.00;102088.00;6246912;28;20050;-76
2022/01/27 00:24:23;;;;;;;27.73;8.90;;;;;;;3.14;100.00;102091.47;6246534;28;20412;-77
2022/01/27 00:27:26;;;;;;;33.55;8.32;;;;;;;3.13;100.00;102080.19;6246711;28;20060;-77
2022/01/27 00:30:27;;;;;;;21.55;7.35;;;;;;;3.15;100.00;102078.47;6246366;28;20053;-76
2022/01/27 00:33:29;;;;;;;28.95;9.60;;;;;;;3.17;100.00;102073.25;6245638;28;20053;-76
2022/01/27 00:36:30;;;;;;;29.95;9.10;;;;;;;3.22;100.00;102074.97;6246850;28;20052;-76
2022/01/27 00:39:32;;;;;;;26.52;8.07;;;;;;;3.18;100.00;102057.69;6246653;28;20053;-77
2022/01/27 00:42:35;;;;;;;24.15;8.82;;;;;;;3.19;100.00;102051.63;6246494;28;20049;-77
2022/01/27 00:45:36;;;;;;;24.70;9.45;;;;;;;3.18;100.00;102059.41;6246330;28;20056;-76
2022/01/27 00:48:37;;;;;;;23.77;7.85;;;;;;;3.18;100.00;102057.69;6246622;28;20060;-76
2022/01/27 00:51:43;;;;;;;27.00;8.73;;;;;;;3.15;100.00;102046.44;6249309;28;20042;-77
2022/01/27 00:54:45;;;;;;;30.13;8.65;;;;;;;3.14;100.00;102042.97;6251594;28;20053;-78
2022/01/27 00:58:08;;;;;;;25.00;7.13;;;;;;;3.20;100.00;102045.56;6250691;28;20080;-76
2022/01/27 01:01:13;;;;;;;22.92;7.50;;;;;;;3.20;100.00;102039.50;6250979;28;20046;-76
2022/01/27 01:04:15;;;;;;;16.40;6.20;;;;;;;3.22;100.00;102024.75;6249414;28;20060;-76
2022/01/27 01:07:18;;;;;;;17.20;6.43;;;;;;;3.22;100.00;102016.97;6251255;28;20056;-77
2022/01/27 01:11:12;;;;;;;20.55;7.63;;;;;;;3.21;100.00;102017.84;6250784;28;20772;-76
2022/01/27 01:17:46;;;;;;;25.80;8.40;;;;;;;3.22;100.00;102012.63;6226370;28;20076;-76
2022/01/27 01:21:02;;;;;;;23.52;7.72;;;;;;;3.29;100.00;101992.72;6226072;28;20050;-76
2022/01/27 01:30:51;;;;;;;19.55;7.28;;;;;;;3.25;100.00;101963.28;6250287;28;19925;-76
2022/01/27 01:33:58;;;;;;;29.42;8.02;;;;;;;3.25;100.00;101952.03;6230292;28;20107;-76
2022/01/27 01:37:02;;;;;;;15.95;7.75;;;;;;;3.33;100.00;101945.06;6250153;28;20412;-77
2022/01/27 01:40:05;;;;;;;22.40;8.00;;;;;;;3.32;100.00;101953.75;6249896;28;20048;-76
2022/01/27 01:43:07;;;;;;;17.48;7.00;;;;;;;3.31;100.00;101947.66;6227632;28;20539;-76
2022/01/27 01:46:09;;;;;;;19.42;7.45;;;;;;;3.33;100.00;101941.63;6225548;28;20057;-76
2022/01/27 01:49:11;;;;;;;16.85;6.35;;;;;;;3.33;100.00;101952.00;6242056;28;20054;-76
2022/01/27 01:52:13;;;;;;;25.73;8.10;;;;;;;3.35;100.00;101945.91;6225272;28;20125;-76
2022/01/27 01:55:14;;;;;;;20.35;6.88;;;;;;;3.38;100.00;101930.31;6225570;28;20054;-77
2022/01/27 01:58:15;;;;;;;15.32;6.38;;;;;;;3.36;100.00;101946.78;6232178;28;20053;-76
2022/01/27 02:01:19;;;;;;;25.13;7.03;;;;;;;3.40;100.00;101962.34;6241347;28;20050;-76
2022/01/27 02:04:20;;;;;;;28.23;8.07;;;;;;;3.37;100.00;101958.94;6246136;28;20057;-76
2022/01/27 02:07:32;;;;;;;28.63;7.65;;;;;;;3.43;100.00;101970.16;6250054;28;20528;-77
2022/01/27 02:17:49;;;;;;;21.08;6.82;;;;;;;3.39;100.00;101944.19;6249469;28;20045;-76
2022/01/27 02:20:48;;;;;;;21.75;6.32;;;;;;;3.36;100.00;101931.19;6173171;28;20424;-76
2022/01/27 02:23:49;;;;;;;21.75;7.70;;;;;;;3.31;100.00;101919.09;6224896;28;20057;-76
2022/01/27 02:26:51;;;;;;;16.20;7.03;;;;;;;3.40;100.00;101917.31;6224909;28;20049;-76
2022/01/27 02:29:53;;;;;;;26.33;8.25;;;;;;;3.34;100.00;101925.16;6224247;28;20050;-76
2022/01/27 02:32:55;;;;;;;25.95;8.98;;;;;;;3.30;100.00;101934.69;6225592;28;20048;-76
2022/01/27 02:35:57;;;;;;;22.67;6.85;;;;;;;3.33;100.00;101915.63;6224395;28;20050;-76
2022/01/27 02:38:59;;;;;;;28.25;8.43;;;;;;;3.36;100.00;101923.41;6224767;28;20046;-75
2022/01/27 02:42:06;;;;;;;23.98;8.65;;;;;;;3.31;100.00;101926.00;6224100;28;20054;-76
2022/01/27 02:45:12;;;;;;;23.15;7.72;;;;;;;3.34;100.00;101941.59;6224461;28;20049;-76
2022/01/27 02:48:13;;;;;;;21.02;8.40;;;;;;;3.32;100.00;101927.78;6224135;28;20050;-76
2022/01/27 02:51:16;;;;;;;19.48;7.35;;;;;;;3.31;100.00;101929.47;6224074;28;20489;-75
2022/01/27 02:54:17;;;;;;;27.88;7.50;;;;;;;3.29;100.00;101928.63;6224032;28;20050;-76
2022/01/27 02:57:20;;;;;;;23.58;8.27;;;;;;;3.35;100.00;101963.25;6224217;28;20521;-76
2022/01/27 03:00:21;;;;;;;19.10;7.40;;;;;;;3.37;100.00;101933.81;6223848;28;20514;-75
2022/01/27 03:03:22;;;;;;;13.02;7.20;;;;;;;3.39;100.00;101926.84;6228821;28;20056;-75
2022/01/27 03:06:25;;;;;;;17.02;7.45;;;;;;;3.34;100.00;101912.16;6248487;28;20072;-75
2022/01/27 03:09:26;;;;;;;20.25;8.05;;;;;;;3.37;100.00;101902.63;6248098;28;20057;-76
2022/01/27 03:12:29;;;;;;;26.45;9.32;;;;;;;3.38;100.00;101895.69;6247301;28;20532;-75
2022/01/27 03:15:31;;;;;;;26.58;8.77;;;;;;;3.36;100.00;101880.13;6247736;28;20053;-76
2022/01/27 03:18:32;;;;;;;22.98;8.68;;;;;;;3.39;100.00;101880.09;6248195;28;20053;-76
2022/01/27 03:21:35;;;;;;;24.35;8.70;;;;;;;3.41;100.00;101895.69;6247623;28;20408;-76
2022/01/27 03:24:38;;;;;;;26.33;9.07;;;;;;;3.31;100.00;101881.84;6247911;28;20045;-75
2022/01/27 03:27:45;;;;;;;25.25;8.80;;;;;;;3.31;100.00;101869.72;6247788;28;20061;-76
2022/01/27 03:30:46;;;;;;;19.95;8.43;;;;;;;3.32;100.00;101865.41;6246955;28;20507;-75
2022/01/27 03:33:48;;;;;;;24.83;7.90;;;;;;;3.33;100.00;101874.94;6246257;28;20045;-76
2022/01/27 03:36:51;;;;;;;25.70;7.82;;;;;;;3.38;100.00;101860.19;6247497;28;20049;-75
2022/01/27 03:39:53;;;;;;;33.13;10.43;;;;;;;3.34;100.00;101857.59;6247198;28;20052;-75
2022/01/27 03:43:03;;;;;;;25.02;9.13;;;;;;;3.31;100.00;101864.53;6234353;28;20057;-75
2022/01/27 03:46:06;;;;;;;24.92;9.88;;;;;;;3.34;100.00;101861.06;6243499;28;20080;-76
2022/01/27 03:49:08;;;;;;;18.60;8.05;;;;;;;3.31;100.00;101866.25;6228345;28;20049;-76
2022/01/27 03:52:10;;;;;;;23.40;9.18;;;;;;;3.29;100.00;101855.91;6247050;28;20045;-77
2022/01/27 03:55:12;;;;;;;24.95;8.60;;;;;;;3.30;100.00;101862.81;6247124;28;20478;-76
2022/01/27 03:58:14;;;;;;;25.70;7.80;;;;;;;3.34;100.00;101844.63;6247204;28;20056;-76
2022/01/27 04:01:16;;;;;;;23.50;7.78;;;;;;;3.29;100.00;101834.25;6239311;28;20042;-77
2022/01/27 04:04:18;;;;;;;23.27;9.15;;;;;;;3.28;100.00;101814.34;6222592;28;20188;-75
2022/01/27 04:07:20;;;;;;;32.65;9.88;;;;;;;3.33;100.00;101793.53;6222513;28;20056;-76
2022/01/27 04:10:21;;;;;;;22.38;8.70;;;;;;;3.29;100.00;101800.47;6223993;28;20056;-74
2022/01/27 04:13:23;;;;;;;19.55;8.15;;;;;;;3.28;100.00;101812.63;6241131;28;20049;-74
2022/01/27 04:16:24;;;;;;;25.15;9.30;;;;;;;3.33;100.00;101801.34;6246956;28;20046;-75
2022/01/27 04:19:26;;;;;;;22.90;8.73;;;;;;;3.35;100.00;101816.03;6246913;28;20084;-75
2022/01/27 04:22:28;;;;;;;26.15;10.18;;;;;;;3.33;100.00;101797.00;6247085;28;20049;-75
2022/01/27 04:25:30;;;;;;;25.05;8.60;;;;;;;3.29;100.00;101770.16;6246514;28;20049;-75
2022/01/27 04:28:33;;;;;;;28.42;6.85;;;;;;;3.32;100.00;101771.91;6246467;28;20512;-75
2022/01/27 04:31:37;;;;;;;23.95;8.25;;;;;;;3.29;100.00;101770.16;6246548;28;20052;-75
2022/01/27 04:34:41;;;;;;;18.30;7.85;;;;;;;3.35;100.00;101764.06;6246008;28;20053;-75
2022/01/27 04:37:57;;;;;;;14.85;7.43;;;;;;;3.29;100.00;101764.13;6222240;28;20053;-75
2022/01/27 04:41:06;;;;;;;17.42;7.60;;;;;;;3.35;100.00;101747.63;6221676;28;20058;-76
2022/01/27 04:44:17;;;;;;;25.10;8.88;;;;;;;3.30;100.00;101758.91;6240403;28;20053;-76
2022/01/27 04:47:24;;;;;;;21.35;7.93;;;;;;;3.38;100.00;101758.00;6227315;28;20050;-75
2022/01/27 04:50:27;;;;;;;23.30;8.30;;;;;;;3.38;100.00;101748.47;6226930;28;20511;-75
2022/01/27 04:53:35;;;;;;;22.00;8.90;;;;;;;3.37;100.00;101745.88;6232631;28;20045;-76
2022/01/27 04:56:38;;;;;;;21.05;7.65;;;;;;;3.35;100.00;101735.47;6233309;28;20045;-76
2022/01/27 04:59:42;;;;;;;21.35;8.02;;;;;;;3.37;100.00;101738.09;6231085;28;20041;-74
2022/01/27 05:02:47;;;;;;;18.55;7.30;;;;;;;3.36;100.00;101725.94;6233127;28;20038;-74
2022/01/27 05:05:52;;;;;;;24.23;8.95;;;;;;;3.30;100.00;101732.06;6228713;28;20430;-76
2022/01/27 05:08:55;;;;;;;18.83;6.78;;;;;;;3.29;100.00;101719.94;6243061;28;20046;-74
2022/01/27 05:12:07;;;;;;;20.92;8.15;;;;;;;3.36;100.00;101724.25;6235350;28;20114;-76
2022/01/27 05:15:09;;;;;;;23.77;9.13;;;;;;;3.32;100.00;101714.75;6221413;28;20413;-76
2022/01/27 05:18:11;;;;;;;21.67;7.05;;;;;;;3.33;100.00;101698.28;6225674;28;20056;-76
2022/01/27 05:21:13;;;;;;;21.13;8.38;;;;;;;3.31;100.00;101682.69;6241563;28;20472;-76
2022/01/27 05:24:16;;;;;;;28.05;8.95;;;;;;;3.29;100.00;101689.63;6245095;28;20079;-76
2022/01/27 05:27:18;;;;;;;19.50;8.52;;;;;;;3.33;100.00;101707.81;6245705;28;20041;-76
2022/01/27 05:30:19;;;;;;;19.33;8.15;;;;;;;3.37;100.00;101697.38;6245497;28;20528;-76
2022/01/27 05:33:21;;;;;;;19.50;8.10;;;;;;;3.38;100.00;101700.84;6245993;28;20046;-75
2022/01/27 05:36:22;;;;;;;19.17;7.32;;;;;;;3.40;100.00;101693.88;6245377;28;20397;-76
2022/01/27 05:39:25;;;;;;;32.58;10.88;;;;;;;3.40;100.00;101684.34;6243678;28;20422;-75
2022/01/27 05:42:26;;;;;;;21.83;8.48;;;;;;;3.41;100.00;101688.69;6233250;28;20045;-75
2022/01/27 05:45:27;;;;;;;22.58;8.27;;;;;;;3.38;100.00;101667.91;6226917;28;20073;-76
2022/01/27 05:48:29;;;;;;;20.95;7.97;;;;;;;3.43;100.00;101678.28;6240992;28;20501;-75
2022/01/27 05:51:30;;;;;;;17.45;7.43;;;;;;;3.38;100.00;101660.13;6225246;28;20050;-76
2022/01/27 05:54:34;;;;;;;20.08;8.07;;;;;;;3.41;100.00;101662.72;6232580;28;20052;-76
2022/01/27 05:57:35;;;;;;;18.38;7.85;;;;;;;3.43;100.00;101686.91;6250048;28;20508;-76
2022/01/27 06:00:36;;;;;;;22.60;7.63;;;;;;;3.45;100.00;101684.31;6249928;28;20052;-77
2022/01/27 06:03:38;;;;;;;17.55;7.88;;;;;;;3.40;100.00;101671.34;6239098;28;20056;-76
2022/01/27 06:06:39;;;;;;;17.25;7.47;;;;;;;3.43;100.00;101667.88;6249432;28;20056;-76
2022/01/27 06:09:42;;;;;;;23.92;8.25;;;;;;;3.35;100.00;101647.16;6247023;28;20053;-76
2022/01/27 06:12:48;;;;;;;18.13;7.13;;;;;;;3.34;100.00;101642.84;6224796;28;20057;-75
2022/01/27 06:15:50;;;;;;;17.10;7.97;;;;;;;3.33;100.00;101650.66;6228085;28;20052;-75
2022/01/27 06:18:51;;;;;;;23.67;8.15;;;;;;;3.33;100.00;101648.91;6245064;28;20041;-75
2022/01/27 06:21:52;;;;;;;21.25;9.23;;;;;;;3.25;100.00;101642.91;6224861;28;20053;-75
2022/01/27 06:24:55;;;;;;;23.02;8.63;;;;;;;3.20;100.00;101640.38;6231940;28;20045;-74
2022/01/27 06:27:56;;;;;;;18.35;7.47;;;;;;;3.24;100.00;101628.22;6249358;28;20050;-76
2022/01/27 06:30:58;;;;;;;24.27;9.02;;;;;;;3.12;100.00;101642.16;6249155;28;20508;-75
2022/01/27 06:33:59;;;;;;;18.15;8.35;;;;;;;3.03;100.00;101624.06;6249141;28;20056;-76
2022/01/27 06:37:01;;;;;;;17.23;7.75;;;;;;;2.98;100.00;101620.63;6249093;28;20493;-75
2022/01/27 06:40:05;;;;;;;26.42;8.82;;;;;;;2.99;100.00;101627.53;6234674;28;20057;-75
2022/01/27 06:43:06;;;;;;;23.50;8.90;;;;;;;2.92;100.00;101626.75;6224762;28;20101;-74
2022/01/27 06:46:08;;;;;;;20.58;7.55;;;;;;;2.89;100.00;101621.56;6224211;28;20056;-75
2022/01/27 06:49:14;;;;;;;26.58;8.30;;;;;;;2.87;100.00;101614.69;6224467;28;20053;-76
2022/01/27 06:52:15;;;;;;;29.40;8.82;;;;;;;2.83;100.00;101621.63;6223799;28;20050;-74
2022/01/27 06:55:18;;;;;;;19.85;8.07;;;;;;;2.85;100.00;101614.69;6225187;28;20566;-74
2022/01/27 06:58:19;;;;;;;25.25;7.72;;;;;;;2.85;100.00;101614.69;6227337;28;20557;-76
2022/01/27 07:01:21;;;;;;;22.98;8.48;;;;;;;2.87;100.00;101612.94;6248151;28;20060;-74
2022/01/27 07:04:22;;;;;;;25.23;9.25;;;;;;;2.86;100.00;101608.63;6239881;28;20061;-75
2022/01/27 07:07:24;;;;;;;23.10;8.40;;;;;;;2.85;100.00;101611.22;6241483;28;20053;-75
2022/01/27 07:10:27;;;;;;;15.88;7.07;;;;;;;2.87;100.00;101599.09;6244890;28;20073;-75
2022/01/27 07:13:28;;;;;;;20.75;7.22;;;;;;;2.83;100.00;101600.88;6244142;28;20053;-76
2022/01/27 07:16:29;;;;;;;21.75;8.27;;;;;;;2.80;100.00;101588.75;6223699;28;20053;-74
2022/01/27 07:19:31;;;;;;;24.95;9.23;;;;;;;2.82;100.00;101588.75;6223738;28;20057;-75
2022/01/27 07:22:33;;;;;;;20.52;7.75;;;;;;;2.86;100.00;101589.56;6228309;28;20512;-75
2022/01/27 07:25:36;;;;;;;18.73;8.27;;;;;;;2.88;100.00;101582.66;6240334;28;20072;-75
2022/01/27 07:28:37;;;;;;;28.98;9.30;;;;;;;2.84;100.00;101583.56;6232848;28;20069;-74
2022/01/27 07:31:38;;;;;;;28.20;8.27;;;;;;;2.83;100.00;101581.84;6234884;28;20053;-73
2022/01/27 07:34:40;;;;;;;21.58;8.38;;;;;;;2.77;100.00;101586.19;6237299;28;20056;-75
2022/01/27 07:37:42;;;;;;;19.35;7.05;;;;;;;2.76;100.00;101581.00;6244253;28;20428;-74
2022/01/27 07:40:45;;;;;;;22.13;7.93;;;;;;;2.76;100.00;101568.88;6239701;28;20489;-73
2022/01/27 07:43:46;;;;;;;26.02;8.98;;;;;;;2.77;100.00;101573.22;6241438;28;20046;-74
2022/01/27 07:46:47;;;;;;;20.08;7.45;;;;;;;2.77;100.00;101567.16;6243059;28;20053;-74
2022/01/27 07:49:49;;;;;;;22.83;8.50;;;;;;;2.78;100.00;101559.38;6226948;28;20077;-73
2022/01/27 07:52:50;;;;;;;19.65;8.05;;;;;;;2.81;100.00;101558.47;6222603;28;20421;-74
2022/01/27 07:55:53;;;;;;;19.10;8.75;;;;;;;2.84;100.00;101558.44;6238079;28;20056;-74
2022/01/27 07:58:54;;;;;;;18.65;7.78;;;;;;;2.82;100.00;101556.72;6242436;28;20534;-74
2022/01/27 08:01:55;;;;;;;19.85;7.95;;;;;;;2.85;100.00;101556.72;6246466;28;20049;-72
2022/01/27 08:04:57;;;;;;;19.65;8.50;;;;;;;2.86;100.00;101546.34;6246870;28;20045;-74
2022/01/27 08:07:58;;;;;;;28.20;7.50;;;;;;;2.88;100.00;101564.47;6246864;28;20061;-74
2022/01/27 08:11:02;;;;;;;19.23;7.53;;;;;;;2.93;100.00;101542.78;6246742;28;20057;-73
2022/01/27 08:14:03;;;;;;;15.82;6.82;;;;;;;2.91;100.00;101575.72;6246732;28;20048;-74
2022/01/27 08:17:05;;;;;;;16.08;6.65;;;;;;;2.98;100.00;101541.00;6224457;28;20056;-74
2022/01/27 08:20:08;;;;;;;15.95;6.10;;;;;;;2.98;100.00;101548.81;6243737;28;20064;-74
2022/01/27 08:23:09;;;;;;;11.88;6.10;;;;;;;3.00;100.00;101544.47;6239278;28;20046;-73
2022/01/27 08:26:15;;;;;;;22.00;8.02;;;;;;;3.00;100.00;101544.47;6244212;28;20049;-73
2022/01/27 08:29:20;;;;;;;16.42;6.93;;;;;;;3.08;100.00;101548.72;6222156;28;20594;-74
2022/01/27 08:32:31;;;;;;;12.50;5.80;;;;;;;3.01;100.00;101546.19;6237974;28;20045;-73
2022/01/27 08:35:33;;;;;;;8.48;5.05;;;;;;;3.08;100.00;101544.38;6241422;28;20053;-73
2022/01/27 08:38:36;;;;;;;10.43;4.97;;;;;;;3.12;100.00;101543.47;6245278;28;20060;-73
2022/01/27 08:41:39;;;;;;;12.30;5.40;;;;;;;3.09;100.00;101535.75;6241504;28;20042;-74
2022/01/27 08:44:41;;;;;;;10.25;5.70;;;;;;;3.11;100.00;101535.72;6244406;28;20052;-74
2022/01/27 08:47:43;;;;;;;11.23;5.15;;;;;;;3.14;100.00;101539.16;6240936;28;20049;-74
2022/01/27 08:50:51;;;;;;;12.88;4.90;;;;;;;3.12;100.00;101532.22;6243955;28;20053;-73
2022/01/27 08:53:53;;;;;;;14.70;5.13;;;;;;;3.15;100.00;101527.88;6245584;28;20057;-74
2022/01/27 08:56:56;;;;;;;10.05;4.63;;;;;;;3.20;100.00;101520.03;6246163;28;20050;-75
2022/01/27 08:59:57;;;;;;;9.10;4.45;;;;;;;3.22;100.00;101526.06;6246224;28;20053;-74
2022/01/27 09:02:58;;;;;;;11.82;4.93;;;;;;;3.21;100.00;101525.19;6245699;28;20451;-73
2022/01/27 09:05:59;;;;;;;7.70;3.63;;;;;;;3.23;100.00;101522.59;6245761;28;20056;-74
2022/01/27 09:09:01;;;;;;;10.50;4.00;;;;;;;3.27;100.00;101517.38;6244200;28;20050;-74
2022/01/27 09:12:05;;;;;;;10.35;3.58;;;;;;;3.29;100.00;101507.81;6246991;28;20061;-74
2022/01/27 09:15:07;;;;;;;10.68;4.93;;;;;;;3.36;100.00;101511.22;6249493;28;20054;-73
2022/01/27 09:18:08;;;;;;;9.90;4.32;;;;;;;3.37;100.00;101517.25;6250678;28;20052;-74
2022/01/27 09:21:17;;;;;;;8.02;3.35;;;;;;;3.43;100.00;101517.19;6250780;28;20060;-73
2022/01/27 09:24:26;;;;;;;7.72;4.53;;;;;;;3.48;100.00;101511.03;6249734;28;20439;-75
2022/01/27 09:27:28;;;;;;;6.20;3.47;;;;;;;3.54;100.00;101516.19;6250852;28;20060;-73
2022/01/27 09:30:30;;;;;;;4.78;2.97;;;;;;;3.58;100.00;101496.19;6250118;28;20500;-75
2022/01/27 09:33:31;;;;;;;8.35;4.13;;;;;;;3.65;100.00;101489.22;6250178;28;20041;-73
2022/01/27 09:36:33;;;;;;;5.82;2.70;;;;;;;3.72;100.00;101491.69;6249502;28;20140;-74
2022/01/27 09:39:35;;;;;;;6.32;3.05;;;;;;;3.75;100.00;101507.25;6250189;28;20057;-75
2022/01/27 09:42:38;;;;;;;9.52;4.18;;;;;;;3.75;100.00;101502.06;6250140;28;20048;-75
2022/01/27 09:45:40;;;;;;;10.80;3.28;;;;;;;3.81;100.00;101501.09;6250210;28;20049;-74
2022/01/27 09:48:44;;;;;;;6.63;3.42;;;;;;;3.89;100.00;101503.59;6239022;28;20046;-75
2022/01/27 09:51:47;;;;;;;4.72;2.97;;;;;;;3.98;100.00;101506.94;6225476;28;20390;-74
2022/01/27 09:54:49;;;;;;;4.85;2.50;;;;;;;3.96;100.00;101502.66;6235454;28;20049;-74
2022/01/27 09:57:55;;;;;;;12.27;3.33;;;;;;;3.94;100.00;101497.47;6249555;28;20045;-73
2022/01/27 10:00:56;;;;;;;4.07;3.00;;;;;;;3.93;100.00;101495.75;6228595;28;20111;-75
2022/01/27 10:03:59;;;;;;;4.47;3.05;;;;;;;4.10;100.00;101489.47;6225031;28;20046;-74
2022/01/27 10:07:01;;;;;;;5.00;3.05;;;;;;;4.03;100.00;101491.28;6239402;28;20049;-74
2022/01/27 10:10:05;;;;;;;5.00;3.08;;;;;;;4.08;100.00;101485.13;6249509;28;20041;-75
2022/01/27 10:13:10;;;;;;;9.13;3.38;;;;;;;4.18;100.00;101480.66;6249515;28;20052;-74
2022/01/27 10:16:30;;;;;;;12.38;3.33;;;;;;;4.21;100.00;101480.59;6249569;28;20088;-75
2022/01/27 10:19:35;;;;;;;5.43;3.03;;;;;;;4.25;100.00;101471.88;6247815;28;20053;-75
2022/01/27 10:22:37;;;;;;;4.50;3.05;;;;;;;4.27;100.00;101474.44;6224321;28;20179;-75
2022/01/27 10:25:46;;;;;;;5.65;3.33;;;;;;;4.26;100.00;101465.78;6247502;28;20060;-74
2022/01/27 10:28:58;;;;;;;;;;;;;;;4.40;100.00;101469.91;6249580;28;20103;-75
2022/01/27 10:32:05;;;;;;;6.90;3.05;;;;;;;4.45;100.00;101474.16;6249040;28;19928;-75
2022/01/27 10:35:09;;;;;;;5.50;2.97;;;;;;;4.55;100.00;101465.31;6248806;28;20064;-73
2022/01/27 10:38:12;;;;;;;7.53;3.58;;;;;;;4.60;100.00;101453.97;6249437;28;20060;-74
2022/01/27 10:41:14;;;;;;;7.75;3.63;;;;;;;4.56;100.00;101472.22;6234264;28;20505;-74
2022/01/27 10:44:18;;;;;;;7.85;4.50;;;;;;;4.67;100.00;101474.63;6231674;28;20052;-74
2022/01/27 10:47:21;;;;;;;12.07;4.45;;;;;;;4.73;100.00;101466.75;6235095;28;20056;-74
2022/01/27 10:50:23;;;;;;;8.40;3.17;;;;;;;4.87;100.00;101470.84;6235613;28;20045;-74
2022/01/27 10:53:43;;;;;;;7.55;3.13;;;;;;;4.86;100.00;101484.72;6240781;28;20048;-74
2022/01/27 10:56:45;;;;;;;6.97;3.53;;;;;;;4.92;100.00;101477.69;6248487;28;20055;-75
2022/01/27 10:59:47;;;;;;;11.75;4.18;;;;;;;4.95;100.00;101471.53;6248403;28;20497;-75
2022/01/27 11:02:51;;;;;;;11.35;4.03;;;;;;;4.96;100.00;101479.34;6248181;28;20053;-73
2022/01/27 11:05:54;;;;;;;5.78;3.05;;;;;;;5.01;100.00;101484.47;6248342;28;20049;-74
2022/01/27 11:08:58;;;;;;;6.28;4.07;;;;;;;5.02;100.00;101479.22;6248394;28;20057;-75
2022/01/27 11:12:06;;;;;;;7.32;3.30;;;;;;;5.07;100.00;101479.13;6248070;28;20053;-73
2022/01/27 11:15:10;;;;;;;8.07;3.40;;;;;;;5.12;100.00;101466.03;6248207;28;20049;-76
2022/01/27 11:18:12;;;;;;;5.85;3.58;;;;;;;5.16;100.00;101462.47;6247949;28;20054;-75
2022/01/27 11:21:27;;;;;;;6.80;3.45;;;;;;;5.14;100.00;101459.91;6247979;28;20049;-75
2022/01/27 11:24:36;;;;;;;7.65;3.25;;;;;;;5.17;100.00;101467.66;6232065;28;20054;-74
2022/01/27 11:27:39;;;;;;;9.25;3.50;;;;;;;5.22;100.00;101452.81;6223510;28;20058;-74
2022/01/27 11:30:53;;;;;;;7.95;4.00;;;;;;;5.26;100.00;101453.56;6222707;28;20049;-73
2022/01/27 11:34:02;;;;;;;7.63;3.80;;;;;;;5.29;100.00;101458.75;6222618;28;20046;-74
2022/01/27 11:37:05;;;;;;;8.23;3.00;;;;;;;5.27;100.00;101452.72;6244794;28;20046;-75
2022/01/27 11:40:09;;;;;;;5.55;3.30;;;;;;;5.25;100.00;101452.72;6246882;28;20064;-74
2022/01/27 11:43:12;;;;;;;6.38;3.08;;;;;;;5.31;100.00;101464.75;6247432;28;20050;-74
2022/01/27 11:46:20;;;;;;;5.57;2.67;;;;;;;5.31;100.00;101454.34;6247492;28;20187;-75
2022/01/27 11:49:46;;;;;;;11.85;2.97;;;;;;;5.42;100.00;101435.91;6246951;28;20052;-74
2022/01/27 11:52:49;;;;;;;5.10;2.78;;;;;;;5.44;100.00;101453.19;6235321;28;20427;-73
2022/01/27 11:55:50;;;;;;;5.45;2.88;;;;;;;5.49;100.00;101438.31;6238339;28;20068;-74
2022/01/27 11:58:54;;;;;;;6.82;3.30;;;;;;;5.58;100.00;101437.28;6222772;28;20050;-75
2022/01/27 12:01:58;;;;;;;5.82;2.47;;;;;;;5.56;100.00;101458.16;6241252;28;20045;-75
2022/01/27 12:05:12;;;;;;;4.38;2.33;;;;;;;5.58;100.00;101450.31;6225210;28;20042;-75
2022/01/27 12:08:22;;;;;;;9.57;3.40;;;;;;;5.55;100.00;101433.00;6246279;28;20053;-74
2022/01/27 12:11:45;;;;;;;10.60;3.30;;;;;;;5.59;100.00;101423.38;6246721;28;20132;-74
2022/01/27 12:15:08;;;;;;;5.43;2.97;;;;;;;5.60;100.00;101423.31;6246529;28;20055;-74
2022/01/27 12:18:36;;;;;;;6.40;3.17;;;;;;;5.62;100.00;101419.81;6246499;28;20122;-74
2022/01/27 12:21:40;;;;;;;5.30;3.65;;;;;;;5.59;100.00;101415.56;6240820;28;20072;-74
2022/01/27 12:24:51;;;;;;;5.43;3.10;;;;;;;5.68;100.00;101414.47;6237340;28;20053;-73
2022/01/27 12:27:55;;;;;;;7.30;3.65;;;;;;;5.74;100.00;101402.16;6222141;28;20057;-74
2022/01/27 12:31:00;;;;;;;8.55;3.75;;;;;;;5.74;100.00;101402.16;6222030;28;20524;-75
2022/01/27 12:34:03;;;;;;;9.23;3.80;;;;;;;5.87;100.00;101397.53;6221906;28;20050;-75
2022/01/27 12:37:07;;;;;;;7.78;4.13;;;;;;;5.92;100.00;101403.50;6222243;28;20053;-75
2022/01/27 12:40:15;;;;;;;7.07;3.17;;;;;;;5.89;100.00;101397.47;6221572;28;20493;-74
2022/01/27 12:43:18;;;;;;;8.98;3.67;;;;;;;5.93;100.00;101392.19;6222316;28;20061;-75
2022/01/27 12:46:19;;;;;;;8.20;4.47;;;;;;;6.03;100.00;101411.94;6224359;28;20485;-74
2022/01/27 12:49:36;;;;;;;9.40;4.55;;;;;;;6.06;100.00;101396.22;6227010;28;20060;-74
2022/01/27 12:52:42;;;;;;;8.23;3.40;;;;;;;6.03;100.00;101393.66;6237888;28;20050;-74
2022/01/27 12:55:44;;;;;;;10.27;4.32;;;;;;;6.06;100.00;101390.13;6247410;28;20041;-75
2022/01/27 12:58:46;;;;;;;9.30;4.18;;;;;;;6.10;100.00;101378.75;6250347;28;20050;-74
2022/01/27 13:01:56;;;;;;;6.80;3.67;;;;;;;6.11;100.00;101372.63;6249873;28;20049;-76
2022/01/27 13:05:00;;;;;;;6.70;3.30;;;;;;;6.10;100.00;101370.91;6241966;28;20048;-75
2022/01/27 13:08:02;;;;;;;6.28;2.85;;;;;;;6.11;100.00;101372.63;6242739;28;20056;-75
2022/01/27 13:11:09;;;;;;;5.68;3.70;;;;;;;6.14;100.00;101369.94;6250926;28;20045;-75
2022/01/27 13:14:11;;;;;;;7.85;3.38;;;;;;;6.09;100.00;101359.63;6243860;28;20041;-76
2022/01/27 13:17:23;;;;;;;6.72;3.25;;;;;;;6.14;100.00;101366.47;6226570;28;20076;-75
2022/01/27 13:20:31;;;;;;;6.65;3.80;;;;;;;6.05;100.00;101371.03;6226258;28;20448;-76
2022/01/27 13:23:36;;;;;;;8.45;3.58;;;;;;;5.99;100.00;101370.31;6226336;28;20510;-75
2022/01/27 13:26:37;;;;;;;5.90;3.33;;;;;;;6.04;100.00;101364.09;6227364;28;20073;-76
2022/01/27 13:29:40;;;;;;;11.57;4.65;;;;;;;6.05;100.00;101359.72;6225929;28;20061;-76
2022/01/27 13:32:41;;;;;;;6.25;3.88;;;;;;;6.04;100.00;101366.72;6226101;28;20054;-75
2022/01/27 13:35:44;;;;;;;8.18;4.20;;;;;;;6.07;100.00;101363.16;6241665;28;20048;-76
2022/01/27 13:39:01;;;;;;;16.25;3.70;;;;;;;6.06;100.00;101364.91;6245738;28;20042;-75
2022/01/27 13:42:07;;;;;;;6.80;3.63;;;;;;;6.02;100.00;101373.69;6236011;28;20429;-76
2022/01/27 13:45:10;;;;;;;5.88;3.45;;;;;;;6.12;100.00;101371.72;6226124;28;20045;-75
2022/01/27 13:48:19;;;;;;;7.00;3.10;;;;;;;6.10;100.00;101360.47;6225538;28;20057;-75
2022/01/27 13:51:24;;;;;;;6.13;3.35;;;;;;;6.07;100.00;101365.75;6233123;28;20049;-77
2022/01/27 13:54:35;;;;;;;7.88;3.35;;;;;;;6.07;100.00;101353.56;6242199;28;20046;-75
2022/01/27 13:57:46;;;;;;;5.63;3.20;;;;;;;6.08;100.00;101350.06;6248643;28;20049;-76
2022/01/27 14:00:51;;;;;;;4.13;2.80;;;;;;;6.11;100.00;101354.34;6249884;28;20714;-76
2022/01/27 14:03:53;;;;;;;7.90;3.38;;;;;;;6.13;100.00;101352.53;6250229;28;20175;-76
2022/01/27 14:06:56;;;;;;;6.30;3.63;;;;;;;6.12;100.00;101337.78;6249169;28;20072;-76
2022/01/27 14:10:07;;;;;;;7.32;3.03;;;;;;;6.21;100.00;101347.16;6249309;28;20488;-75
2022/01/27 14:13:15;;;;;;;8.30;3.33;;;;;;;6.28;100.00;101354.78;6226795;28;20060;-75
2022/01/27 14:16:24;;;;;;;7.65;2.58;;;;;;;6.27;100.00;101368.75;6224943;28;20550;-75
2022/01/27 14:19:32;;;;;;;5.38;1.67;;;;;;;6.26;100.00;101367.00;6224864;28;20057;-75
2022/01/27 14:22:40;;;;;;;4.03;1.77;;;;;;;6.30;100.00;101355.59;6224784;28;20542;-76
2022/01/27 14:25:47;;;;;;;2.33;1.58;;;;;;;6.28;100.00;101365.22;6224794;28;20050;-75
2022/01/27 14:28:50;;;;;;;4.22;2.25;;;;;;;6.28;100.00;101361.75;6225111;28;20148;-76